Map

Track Data

SID SEASON NUMBER BASIN SUBBASIN NAME ISO_TIME NATURE LAT LON WMO_WIND WMO_PRES WMO_AGENCY TRACK_TYPE DIST2LAND LANDFALL IFLAG USA_AGENCY USA_ATCF_ID USA_LAT USA_LON USA_RECORD USA_STATUS USA_WIND USA_PRES USA_SSHS USA_R34_NE USA_R34_SE USA_R34_SW USA_R34_NW USA_R50_NE USA_R50_SE USA_R50_SW USA_R50_NW USA_R64_NE USA_R64_SE USA_R64_SW USA_R64_NW USA_POCI USA_ROCI USA_RMW USA_EYE TOKYO_LAT TOKYO_LON TOKYO_GRADE TOKYO_WIND TOKYO_PRES TOKYO_R50_DIR TOKYO_R50_LONG TOKYO_R50_SHORT TOKYO_R30_DIR TOKYO_R30_LONG TOKYO_R30_SHORT TOKYO_LAND CMA_LAT CMA_LON CMA_CAT CMA_WIND CMA_PRES HKO_LAT HKO_LON HKO_CAT HKO_WIND HKO_PRES NEWDELHI_LAT NEWDELHI_LON NEWDELHI_GRADE NEWDELHI_WIND NEWDELHI_PRES NEWDELHI_CI NEWDELHI_DP NEWDELHI_POCI REUNION_LAT REUNION_LON REUNION_TYPE REUNION_WIND REUNION_PRES REUNION_TNUM REUNION_CI REUNION_RMW REUNION_R34_NE REUNION_R34_SE REUNION_R34_SW REUNION_R34_NW REUNION_R50_NE REUNION_R50_SE REUNION_R50_SW REUNION_R50_NW REUNION_R64_NE REUNION_R64_SE REUNION_R64_SW REUNION_R64_NW BOM_LAT BOM_LON BOM_TYPE BOM_WIND BOM_PRES BOM_TNUM BOM_CI BOM_RMW BOM_R34_NE BOM_R34_SE BOM_R34_SW BOM_R34_NW BOM_R50_NE BOM_R50_SE BOM_R50_SW BOM_R50_NW BOM_R64_NE BOM_R64_SE BOM_R64_SW BOM_R64_NW BOM_ROCI BOM_POCI BOM_EYE BOM_POS_METHOD BOM_PRES_METHOD NADI_LAT NADI_LON NADI_CAT NADI_WIND NADI_PRES WELLINGTON_LAT WELLINGTON_LON WELLINGTON_WIND WELLINGTON_PRES DS824_LAT DS824_LON DS824_STAGE DS824_WIND DS824_PRES TD9636_LAT TD9636_LON TD9636_STAGE TD9636_WIND TD9636_PRES TD9635_LAT TD9635_LON TD9635_WIND TD9635_PRES TD9635_ROCI NEUMANN_LAT NEUMANN_LON NEUMANN_CLASS NEUMANN_WIND NEUMANN_PRES MLC_LAT MLC_LON MLC_CLASS MLC_WIND MLC_PRES USA_GUST BOM_GUST BOM_GUST_PER REUNION_GUST REUNION_GUST_PER USA_SEAHGT USA_SEARAD_NE USA_SEARAD_SE USA_SEARAD_SW USA_SEARAD_NW STORM_SPEED STORM_DIR
1980171N06142 1980 41 WP MM HERBERT 1980-06-19 00:00:00 TS 6.00000 141.800 main 939 933 O________OO___ jtwc_wp WP071980 6.00000 141.800 10 -1 6.00000 141.800 TC 10 6.00000 141.800 0 10 9 291
1980171N06142 1980 41 WP MM HERBERT 1980-06-19 03:00:00 TS 6.15480 141.396 main 943 935 P________PP___ WP071980 6.13750 141.427 10 -1 6.13750 141.427 TC 10 6.18941 141.333 0 10 9 291
1980171N06142 1980 41 WP MM HERBERT 1980-06-19 06:00:00 TS 6.32430 140.958 main 938 934 O________OP___ jtwc_wp WP071980 6.30000 141.000 10 -1 6.30000 141.000 TC 10 6.37289 140.873 0 10 10 291
1980171N06142 1980 41 WP MM HERBERT 1980-06-19 09:00:00 TS 6.51501 140.470 main 942 940 P________PP___ WP071980 6.50005 140.493 10 -1 6.50005 140.493 TC 10 6.54492 140.426 0 10 10 292
1980171N06142 1980 41 WP MM HERBERT 1980-06-19 12:00:00 TS 6.70000 140.000 main 951 945 O________OO___ jtwc_wp WP071980 6.70000 140.000 10 -1 6.70000 140.000 TC 10 6.70000 140.000 0 10 9 292
1980171N06142 1980 41 WP MM HERBERT 1980-06-19 15:00:00 TS 6.85499 139.623 main 955 946 P________PP___ WP071980 6.86490 139.635 12 -1 6.86490 139.635 TC 12 6.83515 139.599 0 11 8 292
1980171N06142 1980 41 WP MM HERBERT 1980-06-19 18:00:00 TS 6.98577 139.273 main 952 939 O________OP___ jtwc_wp WP071980 7.00000 139.300 15 -1 7.00000 139.300 TC 15 6.95730 139.220 0 12 8 287
1980171N06142 1980 41 WP MM HERBERT 1980-06-19 21:00:00 TS 7.08695 138.880 main 945 934 P________PP___ WP071980 7.09252 138.892 15 -1 7.09252 138.892 TC 15 7.07580 138.855 0 13 8 286
1980171N06142 1980 41 WP MM HERBERT 1980-06-20 00:00:00 TS 7.20000 138.500 main 941 938 O________OO___ jtwc_wp WP071980 7.20000 138.500 15 -1 7.20000 138.500 TC 15 7.20000 138.500 0 15 7 293
1980171N06142 1980 41 WP MM HERBERT 1980-06-20 03:00:00 TS 7.38216 138.188 main 952 949 P________PP___ WP071980 7.39991 138.200 15 -1 7.39991 138.200 TC 15 7.34664 138.163 0 15 7 301
1980171N06142 1980 41 WP MM HERBERT 1980-06-20 06:00:00 TS 7.56655 137.877 main 964 958 O________OP___ jtwc_wp WP071980 7.60000 137.900 15 -1 7.60000 137.900 TC 15 7.49965 137.830 0 15 7 295
1980171N06142 1980 41 WP MM HERBERT 1980-06-20 09:00:00 TS 7.68927 137.509 main 964 960 P________PP___ WP071980 7.70748 137.522 15 -1 7.70748 137.522 TC 15 7.65285 137.482 0 15 8 287
1980171N06142 1980 41 WP MM HERBERT 1980-06-20 12:00:00 TS 7.80000 137.100 main 966 965 O________OO___ jtwc_wp WP071980 7.80000 137.100 15 -1 7.80000 137.100 TC 15 7.80000 137.100 0 15 9 287
1980171N06142 1980 41 WP MM HERBERT 1980-06-20 15:00:00 TS 7.94265 136.668 main 971 971 P________PP___ WP071980 7.94995 136.665 15 -1 7.94995 136.665 TC 15 7.92804 136.673 0 15 9 288
1980171N06142 1980 41 WP MM HERBERT 1980-06-20 18:00:00 TS 8.08328 136.203 main 988 986 O________OP___ jtwc_wp WP071980 8.10000 136.200 15 -1 8.10000 136.200 TC 15 8.04985 136.210 0 15 10 285
1980171N06142 1980 41 WP MM HERBERT 1980-06-20 21:00:00 TS 8.19053 135.715 main 997 950 P________PP___ WP071980 8.19994 135.715 15 -1 8.19994 135.715 TC 15 8.17173 135.717 0 15 10 282
1980171N06142 1980 41 WP MM HERBERT 1980-06-21 00:00:00 TS 8.30000 135.200 main 950 896 O________OO___ jtwc_wp WP071980 8.30000 135.200 15 -1 8.30000 135.200 TC 15 8.30000 135.200 0 15 11 284
1980171N06142 1980 41 WP MM HERBERT 1980-06-21 03:00:00 TS 8.44527 134.661 main 896 832 P________PP___ WP071980 8.44246 134.658 15 -1 8.44246 134.658 TC 15 8.45089 134.668 0 15 11 286
1980171N06142 1980 41 WP MM HERBERT 1980-06-21 06:00:00 TS 8.60248 134.105 main 832 779 O________OP___ jtwc_wp WP071980 8.60000 134.100 15 -1 8.60000 134.100 TC 15 8.60743 134.115 0 15 11 286
1980171N06142 1980 41 WP MM HERBERT 1980-06-21 09:00:00 TS 8.75836 133.552 main 780 717 P________PP___ WP071980 8.75742 133.550 15 -1 8.75742 133.550 TC 15 8.76024 133.555 0 15 11 285
1980171N06142 1980 41 WP MM HERBERT 1980-06-21 12:00:00 TS 8.90000 133.000 main 717 665 O________OO___ jtwc_wp WP071980 8.90000 133.000 15 -1 8.90000 133.000 TC 15 8.90000 133.000 0 15 11 283
1980171N06142 1980 41 WP MM HERBERT 1980-06-21 15:00:00 TS 9.00828 132.454 main 665 604 P________PP___ WP071980 9.00745 132.442 17 -1 9.00745 132.442 TC 17 9.00995 132.476 0 16 11 281
1980171N06142 1980 41 WP MM HERBERT 1980-06-21 18:00:00 TS 9.10233 131.919 main 604 554 O________OP___ jtwc_wp WP071980 9.10000 131.900 20 -1 9.10000 131.900 TC 20 9.10700 131.957 0 17 10 280
1980171N06142 1980 41 WP MM HERBERT 1980-06-21 21:00:00 TS 9.19510 131.412 main 554 506 P________PP___ WP071980 9.19237 131.400 20 -1 9.19237 131.400 TC 20 9.20056 131.435 0 18 10 280
1980171N06142 1980 41 WP MM HERBERT 1980-06-22 00:00:00 TS 9.27143 130.914 1008 tokyo main 506 455 OOO______OO___ jtwc_wp WP071980 9.30000 130.900 20 -1 9.00000 130.500 2 1008 0 0 0 9.20000 131.500 1 23 1008 9.30000 130.900 TC 20 9.30000 130.900 1 20 10 281
1980171N06142 1980 41 WP MM HERBERT 1980-06-22 03:00:00 TS 9.39328 130.384 main 455 403 PPP______PP___ WP071980 9.44991 130.365 22 -1 9.24763 130.048 2 1008 0 0 9.28017 130.862 1 23 1007 9.44991 130.365 TC 22 9.40938 130.351 1 21 11 284
1980171N06142 1980 41 WP MM HERBERT 1980-06-22 06:00:00 TS 9.53379 129.830 1008 tokyo main 392 344 OOO______OP___ jtwc_wp WP071980 9.60000 129.800 25 -1 9.50000 129.600 2 1008 0 0 0 9.40000 130.200 1 23 1006 9.60000 129.800 TC 25 9.52704 129.787 1 22 12 284
1980171N06142 1980 41 WP MM HERBERT 1980-06-22 09:00:00 TS 9.67668 129.255 main 344 282 PPP______PP___ WP071980 9.69243 129.207 25 -1 9.75741 129.157 2 1008 0 0 9.58495 129.500 1 23 1006 9.69243 129.207 TC 25 9.65618 129.204 1 23 12 285
1980171N06142 1980 41 WP MM HERBERT 1980-06-22 12:00:00 TS 9.84000 128.660 1008 tokyo main 282 226 OOO______OO___ jtwc_wp WP071980 9.80000 128.600 25 -1 10.0000 128.700 2 1008 0 0 0 9.80000 128.800 1 23 1006 9.80000 128.600 TC 25 9.80000 128.600 1 25 12 286
1980171N06142 1980 41 WP MM HERBERT 1980-06-22 15:00:00 TS 10.0212 128.071 main 226 181 PPP______PP___ WP071980 9.99231 128.015 25 -1 10.1924 128.222 2 1008 0 0 9.98487 128.135 1 23 1006 9.99231 128.015 TC 25 9.94426 127.967 1 25 12 288
1980171N06142 1980 41 WP MM HERBERT 1980-06-22 18:00:00 TS 10.2210 127.463 1008 tokyo main 181 128 OOO______OP___ jtwc_wp WP071980 10.2000 127.400 25 -1 10.4000 127.700 2 1008 0 0 0 10.2000 127.500 1 23 1006 10.2000 127.400 TC 25 10.1048 127.315 1 25 13 288
1980171N06142 1980 41 WP MM HERBERT 1980-06-22 21:00:00 TS 10.4241 126.812 main 128 62 PPP______PP___ WP071980 10.3350 126.700 25 -1 10.6701 127.092 2 1006 0 0 10.4922 126.915 1 23 1005 10.3350 126.700 TC 25 10.2880 126.655 1 25 14 289
1980171N06142 1980 41 WP MM HERBERT 1980-06-23 00:00:00 TS 10.6600 126.160 1004 tokyo main 55 11 OOO______OO___ jtwc_wp WP071980 10.5000 126.000 25 -1 11.0000 126.500 2 1004 0 0 0 10.8000 126.300 1 23 1005 10.5000 126.000 TC 25 10.5000 126.000 1 25 14 294
1980171N06142 1980 41 WP MM HERBERT 1980-06-23 03:00:00 TS 10.9712 125.555 main 15 0 PPP______PP___ WP071980 10.7848 125.393 25 -1 11.4445 126.080 2 1002 0 0 11.0803 125.528 1 23 1004 10.7848 125.393 TC 25 10.7619 125.380 1 25 13 297
1980171N06142 1980 41 WP MM HERBERT 1980-06-23 06:00:00 TS 11.2698 124.953 1000 tokyo main 0 0 OOO______OP___ jtwc_wp WP071980 11.1000 124.800 25 -1 11.8000 125.600 2 1000 0 0 0 11.3000 124.800 1 23 1004 11.1000 124.800 TC 25 11.0491 124.765 1 25 13 292
1980171N06142 1980 41 WP MM HERBERT 1980-06-23 09:00:00 TS 11.4698 124.323 main 10 10 PPP______PP___ WP071980 11.3649 124.157 25 -1 11.8526 124.852 2 1002 0 0 11.4297 124.305 1 23 1004 11.3649 124.157 TC 25 11.3368 124.143 1 25 13 286
1980171N06142 1980 41 WP MM HERBERT 1980-06-23 12:00:00 TS 11.6200 123.680 1004 tokyo main 33 24 OOO______OO___ jtwc_wp WP071980 11.6000 123.500 25 -1 11.8000 124.000 2 1004 0 0 0 11.5000 123.900 1 23 1004 11.6000 123.500 TC 25 11.6000 123.500 1 25 13 283
1980171N06142 1980 41 WP MM HERBERT 1980-06-23 15:00:00 TS 11.7658 123.051 main 33 22 PPP______PP___ WP071980 11.8147 122.865 27 -1 11.8423 123.200 2 1004 0 0 11.5497 123.495 1 23 1004 11.8147 122.865 TC 27 11.8074 122.829 1 27 13 282
1980171N06142 1980 41 WP MM HERBERT 1980-06-23 18:00:00 TS 11.8974 122.387 1004 tokyo main 22 11 OOO______OP___ jtwc_wp WP071980 12.0000 122.200 30 -1 11.9000 122.400 2 1004 0 0 0 11.6000 123.000 1 23 1004 12.0000 122.200 TC 30 11.9869 122.137 1 30 14 281
1980171N06142 1980 41 WP MM HERBERT 1980-06-23 21:00:00 TS 12.0224 121.659 main 24 11 PPP______PP___ WP071980 12.1799 121.465 32 -1 11.9273 121.600 2 1004 0 0 11.6772 122.340 1 23 1004 12.1799 121.465 TC 32 12.1479 121.426 1 32 15 279
1980171N06142 1980 41 WP MM HERBERT 1980-06-24 00:00:00 TS 12.1400 120.880 1004 tokyo main 24 24 OOO______OO___ jtwc_wp WP071980 12.3000 120.700 35 0 12.0000 120.800 2 1004 0 0 0 11.8000 121.500 1 23 1004 12.3000 120.700 TC 35 12.3000 120.700 2 35 16 277
1980171N06142 1980 41 WP MM HERBERT 1980-06-24 03:00:00 TS 12.2224 120.055 main 94 94 PPP______PP___ WP071980 12.2773 119.949 37 0 12.1625 119.978 2 1003 0 0 11.9705 120.458 1 26 1002 12.2773 119.949 TC 37 12.4246 119.943 2 36 16 277
1980171N06142 1980 41 WP MM HERBERT 1980-06-24 06:00:00 TS 12.3495 119.235 1002 tokyo main 116 116 OOO______OP___ jtwc_wp WP071980 12.3000 119.200 40 0 12.4000 119.200 2 1002 0 0 0 12.2000 119.400 1 29 1000 12.3000 119.200 TC 40 12.5475 119.176 2 37 16 283
1980171N06142 1980 41 WP MM HERBERT 1980-06-24 09:00:00 TS 12.5861 118.479 main 181 181 PPP______PP___ WP071980 12.5474 118.435 40 0 12.6695 118.550 2 1000 0 0 12.4695 118.555 1 29 1000 12.5474 118.435 TC 40 12.6966 118.421 2 38 15 290
1980171N06142 1980 41 WP MM HERBERT 1980-06-24 12:00:00 TS 12.8810 117.776 35 998 tokyo main 257 257 OOOO_____OO___ jtwc_wp WP071980 12.9000 117.700 40 0 13.0000 117.900 3 35 998 0 8 100 50 0 12.8000 117.800 1 29 1000 12.5000 118.100 TD 30 1000 12.9000 117.700 TC 40 12.9000 117.700 2 40 15 295
1980171N06142 1980 41 WP MM HERBERT 1980-06-24 15:00:00 TS 13.2217 117.070 main 335 335 PPPP_____PP___ WP071980 13.2423 117.027 40 0 13.3926 117.100 3 35 997 0 8 100 50 13.1998 117.028 1 33 998 12.8851 117.330 TD 30 1000 13.2423 117.027 TC 40 13.1998 117.035 2 41 15 297
1980171N06142 1980 41 WP MM HERBERT 1980-06-24 18:00:00 TS 13.5876 116.379 35 996 tokyo main 421 421 OOOO_____OP___ jtwc_wp WP071980 13.6000 116.400 40 0 13.8000 116.300 3 35 996 0 8 100 50 0 13.6000 116.300 2 38 996 13.3000 116.500 TD 30 1000 13.6000 116.400 TC 40 13.5539 116.405 2 42 15 299
1980171N06142 1980 41 WP MM HERBERT 1980-06-24 21:00:00 TS 13.9459 115.702 main 482 478 PPPP_____PP___ WP071980 13.9498 115.792 42 0 14.1797 115.612 3 35 996 0 8 100 50 13.9073 115.620 2 38 996 13.7578 115.598 TD 32 999 13.9498 115.792 TC 42 13.9311 115.798 2 43 15 299
1980171N06142 1980 41 WP MM HERBERT 1980-06-25 00:00:00 TS 14.3000 115.067 35 996 tokyo main 529 529 OOOO_____OO___ jtwc_wp WP071980 14.3000 115.200 45 0 14.5000 115.000 3 35 996 0 8 100 50 0 14.2000 115.000 2 38 996 14.2000 114.800 TS 35 998 14.3000 115.200 TC 45 14.3000 115.200 2 45 14 300
1980171N06142 1980 41 WP MM HERBERT 1980-06-25 03:00:00 TS 14.6189 114.481 main 566 518 PPPP_____PP___ WP071980 14.6648 114.600 47 0 14.6699 114.419 3 37 996 0 8 100 50 14.5273 114.427 2 38 996 14.5720 114.282 TS 35 996 14.6648 114.600 TC 47 14.6144 114.556 2 46 13 300
1980171N06142 1980 41 WP MM HERBERT 1980-06-25 06:00:00 TS 14.9359 113.937 40 996 tokyo main 508 466 OOOO_____OP___ jtwc_wp WP071980 15.0000 114.000 50 0 14.9000 113.900 3 40 996 0 8 100 50 0 14.9000 113.900 2 38 996 14.9000 113.900 TS 35 995 15.0000 114.000 TC 50 14.9151 113.925 2 47 12 303
1980171N06142 1980 41 WP MM HERBERT 1980-06-25 09:00:00 TS 15.2909 113.395 main 466 420 PPPP_____PP___ WP071980 15.2650 113.370 50 0 15.4348 113.443 3 42 994 0 8 90 65 15.3725 113.363 2 43 994 15.1999 113.492 TS 37 992 15.2650 113.370 TC 50 15.2083 113.331 2 48 12 305
1980171N06142 1980 41 WP MM HERBERT 1980-06-25 12:00:00 TS 15.6333 112.900 45 992 tokyo main 420 384 OOOO_____OO___ jtwc_wp WP071980 15.5000 112.800 50 0 16.0000 113.000 3 45 992 0 9 80 80 0 15.8000 112.900 3 48 992 15.5000 113.100 TS 40 990 15.5000 112.800 TC 50 15.5000 112.800 2 50 11 305
1980171N06142 1980 41 WP MM HERBERT 1980-06-25 15:00:00 TS 15.9087 112.475 main 384 332 PPPP_____PP___ WP071980 15.7348 112.362 50 0 16.3374 112.507 3 47 991 0 9 85 85 16.0147 112.592 3 48 991 15.8350 112.692 TS 42 990 15.7348 112.362 TC 50 15.7953 112.331 2 50 10 305
1980171N06142 1980 41 WP MM HERBERT 1980-06-25 18:00:00 TS 16.1820 112.088 50 990 tokyo main 332 278 OOOO_____OP___ jtwc_wp WP071980 16.0000 112.000 50 0 16.6000 112.000 4 50 990 0 9 90 90 0 16.2000 112.300 3 48 990 16.2000 112.300 TS 45 990 16.0000 112.000 TC 50 16.0918 111.930 2 50 10 309
1980171N06142 1980 41 WP MM HERBERT 1980-06-25 21:00:00 TS 16.5200 111.681 main 278 225 PPPP_____PP___ WP071980 16.3425 111.628 50 0 16.9151 111.463 4 47 990 0 9 90 90 16.5352 111.850 3 48 990 16.5925 111.927 TS 47 990 16.3425 111.628 TC 50 16.3924 111.588 2 50 10 313
1980171N06142 1980 41 WP MM HERBERT 1980-06-26 00:00:00 TS 16.8667 111.317 45 990 tokyo main 217 171 OOOO_____OO___ jtwc_wp WP071980 16.7000 111.300 50 0 17.2000 111.000 3 45 990 0 9 90 90 0 16.9000 111.400 3 48 990 17.0000 111.600 STS 50 990 16.7000 111.300 TC 50 16.7000 111.300 2 50 9 317
1980171N06142 1980 41 WP MM HERBERT 1980-06-26 03:00:00 TS 17.1803 111.031 main 171 131 PPPP_____PP___ WP071980 17.0000 111.020 50 0 17.4148 110.712 3 45 990 0 9 90 90 17.2074 111.055 3 48 990 17.4299 111.327 STS 50 990 17.0000 111.020 TC 50 17.0296 111.049 2 48 8 322
1980171N06142 1980 41 WP MM HERBERT 1980-06-26 06:00:00 TS 17.4774 110.808 45 990 tokyo main 131 92 OOOO_____OP___ jtwc_wp WP071980 17.3000 110.800 50 0 17.6000 110.500 3 45 990 0 9 90 90 0 17.5000 110.800 3 48 990 17.8000 111.100 STS 50 990 17.3000 110.800 TC 50 17.3645 110.847 2 47 7 326
1980171N06142 1980 41 WP MM HERBERT 1980-06-26 09:00:00 TS 17.7691 110.621 main 92 69 PPPP_____PP___ WP071980 17.6574 110.650 47 0 17.7850 110.227 3 45 990 0 9 90 90 17.8149 110.627 3 48 987 18.0074 110.900 STS 50 990 17.6574 110.650 TC 47 17.6922 110.671 2 46 7 329
1980171N06142 1980 41 WP MM HERBERT 1980-06-26 12:00:00 TS 18.0500 110.450 45 990 tokyo main 61 30 OOOO_____OO___ jtwc_wp WP071980 18.0000 110.500 45 0 18.0000 110.000 3 45 990 0 9 90 90 0 18.1000 110.500 3 48 985 18.2000 110.700 STS 50 990 18.0000 110.500 TC 45 18.0000 110.500 2 45 7 327
1980171N06142 1980 41 WP MM HERBERT 1980-06-26 15:00:00 TS 18.3214 110.240 main 23 0 PPPP_____PP___ WP071980 18.2651 110.250 45 0 18.2849 109.877 3 45 991 0 9 85 85 18.3000 110.350 3 48 985 18.5500 110.443 STS 47 990 18.2651 110.250 TC 45 18.2635 110.272 2 45 7 324
1980171N06142 1980 41 WP MM HERBERT 1980-06-26 18:00:00 TS 18.5846 110.041 45 992 tokyo main 0 0 OOOO_____OP___ jtwc_wp WP071980 18.5000 110.000 45 0 18.6000 109.800 3 45 992 0 9 80 80 0 18.5000 110.200 3 48 985 18.9000 110.200 TS 45 990 18.5000 110.000 TC 45 18.5076 110.048 2 45 6 327
1980171N06142 1980 41 WP MM HERBERT 1980-06-26 21:00:00 TS 18.8425 109.878 main 0 0 PPPP_____PP___ WP071980 18.7500 109.812 45 0 18.9075 109.693 3 40 992 0 9 75 75 18.7924 110.072 3 48 985 19.1075 110.027 TS 42 990 18.7500 109.812 TC 45 18.7479 109.850 2 45 6 332
1980171N06142 1980 41 WP MM HERBERT 1980-06-27 00:00:00 TS 19.1000 109.750 35 992 tokyo main 0 0 OOOO_____OO___ jtwc_wp WP071980 19.0000 109.700 45 0 19.2000 109.600 3 35 992 0 9 70 70 0 19.1000 109.900 3 48 985 19.3000 109.900 TS 40 990 19.0000 109.700 TC 45 19.0000 109.700 2 45 6 338
1980171N06142 1980 41 WP MM HERBERT 1980-06-27 03:00:00 TS 19.3650 109.649 main 0 0 PPPP_____PP___ WP071980 19.2350 109.685 45 0 19.4575 109.542 3 37 991 0 9 70 70 19.3577 109.548 3 48 985 19.6075 109.800 TS 40 987 19.2350 109.685 TC 45 19.2977 109.636 2 45 6 344
1980171N06142 1980 41 WP MM HERBERT 1980-06-27 06:00:00 TS 19.6346 109.587 40 990 tokyo main 0 0 OOOO_____OP___ jtwc_wp WP071980 19.5000 109.700 45 0 19.7000 109.500 3 40 990 0 9 70 70 0 19.6000 109.300 3 48 985 19.9000 109.700 TS 40 985 19.5000 109.700 TC 45 19.6073 109.619 2 45 6 353
1980171N06142 1980 41 WP MM HERBERT 1980-06-27 09:00:00 TS 19.9131 109.573 main 0 0 PPPP_____PP___ WP071980 19.8575 109.658 45 0 19.9500 109.457 3 40 990 0 9 70 70 19.8501 109.499 3 48 984 20.0500 109.550 TS 40 985 19.8575 109.658 TC 45 19.9133 109.618 2 45 6 357
1980171N06142 1980 41 WP MM HERBERT 1980-06-27 12:00:00 TS 20.1833 109.550 40 990 tokyo main 31 31 OOOO_____OO___ jtwc_wp WP071980 20.2000 109.600 45 0 20.2000 109.400 3 40 990 0 9 70 70 0 20.1000 109.700 3 48 983 20.2000 109.400 TS 40 985 20.2000 109.600 TC 45 20.2000 109.600 2 45 5 349
1980171N06142 1980 41 WP MM HERBERT 1980-06-27 15:00:00 TS 20.4275 109.468 main 33 31 PPPP_____PP___ WP071980 20.4150 109.565 45 0 20.4500 109.308 3 40 990 0 9 75 75 20.3501 109.468 3 48 983 20.4849 109.307 TS 40 985 20.4150 109.565 TC 45 20.4499 109.598 2 45 5 338
1980171N06142 1980 41 WP MM HERBERT 1980-06-27 18:00:00 TS 20.6631 109.344 40 990 tokyo main 43 41 OOOO_____OP___ jtwc_wp WP071980 20.6000 109.500 45 0 20.7000 109.200 3 40 990 0 9 80 80 0 20.6000 109.100 3 48 983 20.8000 109.200 TS 40 985 20.6000 109.500 TC 45 20.6787 109.564 2 45 5 333
1980171N06142 1980 41 WP MM HERBERT 1980-06-27 21:00:00 TS 20.9083 109.213 main 51 35 PPPP_____PP___ WP071980 20.8348 109.417 45 0 20.9499 109.122 3 37 991 0 9 75 75 20.8575 108.835 3 48 982 21.0799 109.038 TS 40 985 20.8348 109.417 TC 45 20.8932 109.448 2 45 6 327
1980171N06142 1980 41 WP MM HERBERT 1980-06-28 00:00:00 TS 21.1500 109.000 35 992 tokyo main 30 22 OOOO_____OO___ jtwc_wp WP071980 21.1000 109.200 45 0 21.2000 109.000 3 35 992 0 9 70 70 0 21.1000 108.600 3 48 982 21.3000 108.800 TS 40 985 21.1000 109.200 TC 45 21.1000 109.200 2 45 7 314
1980171N06142 1980 41 WP MM HERBERT 1980-06-28 03:00:00 TS 21.3923 108.683 main 22 0 PPPP_____PP___ WP071980 21.4225 108.775 42 0 21.4645 108.847 3 35 992 0 9 65 65 21.3073 108.422 3 48 982 21.4373 108.502 TS 37 987 21.4225 108.775 TC 42 21.2996 108.778 2 38 8 303
1980171N06142 1980 41 WP MM HERBERT 1980-06-28 06:00:00 TS 21.6032 108.243 35 992 tokyo main 0 0 OOOO_____OP___ jtwc_wp WP071980 21.7000 108.200 40 0 21.7000 108.500 3 35 992 0 9 60 60 0 21.5000 108.200 3 48 983 21.5000 108.100 TS 35 990 21.7000 108.200 TC 40 21.4931 108.222 2 32 10 291
1980171N06142 1980 41 WP MM HERBERT 1980-06-28 09:00:00 TS 21.7544 107.671 main 0 0 PPPP_____PP___ WP071980 21.8075 107.572 30 -1 21.8499 107.862 3 993 0 9 21.7377 107.815 3 48 986 21.5130 107.582 TS 32 990 21.8075 107.572 TC 30 21.6900 107.580 2 26 12 285
1980171N06142 1980 41 WP MM HERBERT 1980-06-28 12:00:00 TS 21.9000 107.019 994 tokyo main 0 0 OOOO_____OO___ jtwc_wp WP071980 21.9000 106.900 20 -1 22.0000 107.000 2 994 0 0 0 21.9000 107.400 3 48 990 21.5000 107.000 TD 30 990 21.9000 106.900 TC 20 21.9000 106.900 1 20 12 287
1980171N06142 1980 41 WP MM HERBERT 1980-06-28 15:00:00 TS 22.1057 106.397 main 0 0 PPP______PP___ WP071980 22.1272 106.258 17 -1 22.2582 106.001 2 994 0 0 21.8853 107.250 3 38 992 TD 22.1272 106.258 TC 17 22.1309 106.220 1 17 13 288
1980171N06142 1980 41 WP MM HERBERT 1980-06-28 18:00:00 TS 22.3085 105.665 994 tokyo main 0 0 OOO______OP___ jtwc_wp WP071980 22.4000 105.600 15 -1 22.5000 105.000 2 994 0 0 0 21.8000 106.800 1 29 995 22.4000 105.600 TC 15 22.3789 105.545 1 15 15 284
1980171N06142 1980 41 WP MM HERBERT 1980-06-28 21:00:00 TS 22.4875 104.790 main 0 0 PPP______PP___ WP071980 22.6582 104.910 12 -1 22.6141 104.212 2 995 0 0 21.7428 105.625 1 26 995 22.6582 104.910 TC 12 22.6375 104.872 1 12 17 281
1980171N06142 1980 41 WP MM HERBERT 1980-06-29 00:00:00 TS 22.6429 103.871 996 tokyo main 0 0 OOO______OO___ jtwc_wp WP071980 22.9000 104.200 10 -1 22.7000 103.500 2 996 0 0 0 21.7000 104.000 1 23 996 22.9000 104.200 TC 10 22.9000 104.200 6 10 19 280
1980171N06142 1980 41 WP MM HERBERT 1980-06-29 03:00:00 TS 22.8335 102.763 main 0 0 _P____________ WP071980 -1 22.8335 102.763 2 996 0 0 1 TC 6 18 282
1980171N06142 1980 41 WP MM HERBERT 1980-06-29 06:00:00 ET 23.0000 102.000 996 tokyo main 0 _O____________ -1 23.0000 102.000 6 996 0 0 0 6 14 283

Digital Typhoon Data and Search

About IBTrACS Database

This database is a web-friendly format of International Best Track Archive for Climate Stewardship (IBTrACS), a global best track data archive curated by NOAA dating back to 1842.

Updated: 2021-12-01